sensor_id;sensor_type;location;lat;lon;timestamp;pressure;altitude;pressure_sealevel;temperature;humidity
26978;BME280;56314;48.088;11.642;2024-03-08T00:01:14;95292.31;;;0.17;95.80
26978;BME280;56314;48.088;11.642;2024-03-08T00:03:41;95296.69;;;0.14;95.75
26978;BME280;56314;48.088;11.642;2024-03-08T00:06:06;95294.09;;;0.14;96.17
26978;BME280;56314;48.088;11.642;2024-03-08T00:08:32;95293.97;;;0.18;95.85
26978;BME280;56314;48.088;11.642;2024-03-08T00:10:57;95288.75;;;0.19;95.55
26978;BME280;56314;48.088;11.642;2024-03-08T00:13:23;95291.50;;;0.14;95.17
26978;BME280;56314;48.088;11.642;2024-03-08T00:15:50;95282.25;;;0.09;95.25
26978;BME280;56314;48.088;11.642;2024-03-08T00:18:15;95290.91;;;0.08;95.75
26978;BME280;56314;48.088;11.642;2024-03-08T00:20:41;95283.41;;;0.02;94.99
26978;BME280;56314;48.088;11.642;2024-03-08T00:23:07;95290.25;;;0.03;94.70
26978;BME280;56314;48.088;11.642;2024-03-08T00:25:32;95287.66;;;0.03;94.96
26978;BME280;56314;48.088;11.642;2024-03-08T00:27:59;95292.53;;;0.10;94.56
26978;BME280;56314;48.088;11.642;2024-03-08T00:30:25;95283.91;;;0.11;93.60
26978;BME280;56314;48.088;11.642;2024-03-08T00:32:50;95284.72;;;0.12;92.92
26978;BME280;56314;48.088;11.642;2024-03-08T00:35:16;95278.16;;;0.03;93.52
26978;BME280;56314;48.088;11.642;2024-03-08T00:37:41;95282.78;;;-0.05;94.42
26978;BME280;56314;48.088;11.642;2024-03-08T00:40:07;95272.66;;;-0.11;94.17
26978;BME280;56314;48.088;11.642;2024-03-08T00:42:34;95266.59;;;-0.10;94.60
26978;BME280;56314;48.088;11.642;2024-03-08T00:44:59;95254.84;;;-0.18;94.51
26978;BME280;56314;48.088;11.642;2024-03-08T00:47:25;95257.53;;;-0.21;95.26
26978;BME280;56314;48.088;11.642;2024-03-08T00:49:51;95259.72;;;-0.10;94.96
26978;BME280;56314;48.088;11.642;2024-03-08T00:52:16;95246.03;;;-0.12;94.25
26978;BME280;56314;48.088;11.642;2024-03-08T00:54:43;95251.38;;;-0.17;94.77
26978;BME280;56314;48.088;11.642;2024-03-08T00:57:08;95245.25;;;-0.14;95.12
26978;BME280;56314;48.088;11.642;2024-03-08T00:59:34;95244.53;;;-0.18;94.66
26978;BME280;56314;48.088;11.642;2024-03-08T01:02:00;95247.38;;;-0.25;95.76
26978;BME280;56314;48.088;11.642;2024-03-08T01:04:26;95245.75;;;-0.28;95.75
26978;BME280;56314;48.088;11.642;2024-03-08T01:06:54;95240.53;;;-0.26;95.69
26978;BME280;56314;48.088;11.642;2024-03-08T01:09:22;95242.41;;;-0.30;95.92
26978;BME280;56314;48.088;11.642;2024-03-08T01:11:47;95239.56;;;-0.24;95.70
26978;BME280;56314;48.088;11.642;2024-03-08T01:14:12;95242.94;;;-0.22;95.85
26978;BME280;56314;48.088;11.642;2024-03-08T01:16:38;95231.78;;;-0.22;95.37
26978;BME280;56314;48.088;11.642;2024-03-08T01:19:03;95231.91;;;-0.25;95.82
26978;BME280;56314;48.088;11.642;2024-03-08T01:21:28;95232.06;;;-0.30;95.59
26978;BME280;56314;48.088;11.642;2024-03-08T01:23:54;95232.75;;;-0.25;96.39
26978;BME280;56314;48.088;11.642;2024-03-08T01:26:19;95226.97;;;-0.32;95.76
26978;BME280;56314;48.088;11.642;2024-03-08T01:28:44;95224.22;;;-0.27;95.23
26978;BME280;56314;48.088;11.642;2024-03-08T01:31:10;95220.06;;;-0.31;95.84
26978;BME280;56314;48.088;11.642;2024-03-08T01:33:35;95204.69;;;-0.34;96.13
26978;BME280;56314;48.088;11.642;2024-03-08T01:36:00;95205.75;;;-0.40;96.38
26978;BME280;56314;48.088;11.642;2024-03-08T01:38:26;95196.41;;;-0.42;97.23
26978;BME280;56314;48.088;11.642;2024-03-08T01:40:51;95199.41;;;-0.31;96.69
26978;BME280;56314;48.088;11.642;2024-03-08T01:45:43;95197.97;;;-0.38;96.73
26978;BME280;56314;48.088;11.642;2024-03-08T01:48:08;95193.81;;;-0.42;97.80
26978;BME280;56314;48.088;11.642;2024-03-08T01:50:34;95185.88;;;-0.36;96.85
26978;BME280;56314;48.088;11.642;2024-03-08T01:53:01;95180.91;;;-0.42;97.00
26978;BME280;56314;48.088;11.642;2024-03-08T01:55:27;95178.41;;;-0.44;97.03
26978;BME280;56314;48.088;11.642;2024-03-08T01:57:52;95178.34;;;-0.42;97.48
26978;BME280;56314;48.088;11.642;2024-03-08T02:00:18;95175.75;;;-0.42;97.27
26978;BME280;56314;48.088;11.642;2024-03-08T02:02:46;95178.59;;;-0.49;97.61
26978;BME280;56314;48.088;11.642;2024-03-08T02:05:12;95170.72;;;-0.45;97.00
26978;BME280;56314;48.088;11.642;2024-03-08T02:07:41;95163.22;;;-0.52;97.50
26978;BME280;56314;48.088;11.642;2024-03-08T02:10:09;95159.75;;;-0.51;97.52
26978;BME280;56314;48.088;11.642;2024-03-08T02:12:35;95160.91;;;-0.59;97.45
26978;BME280;56314;48.088;11.642;2024-03-08T02:15:01;95161.75;;;-0.59;98.11
26978;BME280;56314;48.088;11.642;2024-03-08T02:17:26;95166.06;;;-0.59;98.22
26978;BME280;56314;48.088;11.642;2024-03-08T02:19:51;95162.53;;;-0.57;98.21
26978;BME280;56314;48.088;11.642;2024-03-08T02:22:17;95165.09;;;-0.57;98.01
26978;BME280;56314;48.088;11.642;2024-03-08T02:24:42;95161.91;;;-0.64;98.31
26978;BME280;56314;48.088;11.642;2024-03-08T02:27:08;95161.13;;;-0.66;98.53
26978;BME280;56314;48.088;11.642;2024-03-08T02:29:37;95150.53;;;-0.58;98.13
26978;BME280;56314;48.088;11.642;2024-03-08T02:32:02;95153.34;;;-0.64;97.92
26978;BME280;56314;48.088;11.642;2024-03-08T02:34:28;95145.25;;;-0.55;97.26
26978;BME280;56314;48.088;11.642;2024-03-08T02:36:54;95153.38;;;-0.66;97.84
26978;BME280;56314;48.088;11.642;2024-03-08T02:39:21;95144.66;;;-0.62;97.84
26978;BME280;56314;48.088;11.642;2024-03-08T02:41:47;95146.63;;;-0.68;98.22
26978;BME280;56314;48.088;11.642;2024-03-08T02:44:12;95152.75;;;-0.71;98.01
26978;BME280;56314;48.088;11.642;2024-03-08T02:46:38;95156.72;;;-0.62;98.07
26978;BME280;56314;48.088;11.642;2024-03-08T02:49:03;95150.16;;;-0.71;97.96
26978;BME280;56314;48.088;11.642;2024-03-08T02:51:29;95148.22;;;-0.66;97.82
26978;BME280;56314;48.088;11.642;2024-03-08T02:53:56;95142.41;;;-0.71;98.19
26978;BME280;56314;48.088;11.642;2024-03-08T02:56:21;95146.72;;;-0.71;98.47
26978;BME280;56314;48.088;11.642;2024-03-08T02:58:47;95146.72;;;-0.71;97.91
26978;BME280;56314;48.088;11.642;2024-03-08T03:01:14;95141.53;;;-0.70;97.86
26978;BME280;56314;48.088;11.642;2024-03-08T03:03:40;95143.38;;;-0.73;98.19
26978;BME280;56314;48.088;11.642;2024-03-08T03:06:06;95140.94;;;-0.78;98.03
26978;BME280;56314;48.088;11.642;2024-03-08T03:08:32;95130.63;;;-0.78;98.30
26978;BME280;56314;48.088;11.642;2024-03-08T03:10:57;95136.72;;;-0.79;98.94
26978;BME280;56314;48.088;11.642;2024-03-08T03:13:23;95128.91;;;-0.78;98.70
26978;BME280;56314;48.088;11.642;2024-03-08T03:15:48;95129.59;;;-0.72;98.31
26978;BME280;56314;48.088;11.642;2024-03-08T03:18:14;95123.50;;;-0.71;97.76
26978;BME280;56314;48.088;11.642;2024-03-08T03:20:40;95129.63;;;-0.74;97.97
26978;BME280;56314;48.088;11.642;2024-03-08T03:23:10;95124.59;;;-0.77;98.25
26978;BME280;56314;48.088;11.642;2024-03-08T03:25:39;95123.69;;;-0.76;98.25
26978;BME280;56314;48.088;11.642;2024-03-08T03:28:09;95120.28;;;-0.76;99.38
26978;BME280;56314;48.088;11.642;2024-03-08T03:30:36;95131.41;;;-0.76;98.63
26978;BME280;56314;48.088;11.642;2024-03-08T03:33:02;95123.66;;;-0.74;98.71
26978;BME280;56314;48.088;11.642;2024-03-08T03:35:32;95122.88;;;-0.76;98.08
26978;BME280;56314;48.088;11.642;2024-03-08T03:37:57;95135.25;;;-0.86;99.08
26978;BME280;56314;48.088;11.642;2024-03-08T03:40:33;95122.91;;;-0.78;98.91
26978;BME280;56314;48.088;11.642;2024-03-08T03:42:58;95123.22;;;-0.86;98.37
26978;BME280;56314;48.088;11.642;2024-03-08T03:45:24;95122.34;;;-0.86;99.18
26978;BME280;56314;48.088;11.642;2024-03-08T03:47:50;95125.97;;;-0.90;99.26
26978;BME280;56314;48.088;11.642;2024-03-08T03:50:15;95117.44;;;-0.93;99.25
26978;BME280;56314;48.088;11.642;2024-03-08T03:52:41;95122.63;;;-0.94;99.92
26978;BME280;56314;48.088;11.642;2024-03-08T03:55:07;95117.63;;;-0.99;100.00
26978;BME280;56314;48.088;11.642;2024-03-08T03:57:33;95109.13;;;-1.01;100.00
26978;BME280;56314;48.088;11.642;2024-03-08T03:59:58;95106.53;;;-1.01;100.00
26978;BME280;56314;48.088;11.642;2024-03-08T04:02:24;95105.53;;;-0.97;100.00
26978;BME280;56314;48.088;11.642;2024-03-08T04:04:54;95104.75;;;-0.99;100.00
26978;BME280;56314;48.088;11.642;2024-03-08T04:07:20;95109.13;;;-1.01;100.00
26978;BME280;56314;48.088;11.642;2024-03-08T04:09:46;95107.41;;;-1.00;100.00
26978;BME280;56314;48.088;11.642;2024-03-08T04:12:11;95111.03;;;-1.06;100.00
26978;BME280;56314;48.088;11.642;2024-03-08T04:14:39;95105.97;;;-1.09;100.00
26978;BME280;56314;48.088;11.642;2024-03-08T04:17:05;95105.19;;;-1.11;100.00
26978;BME280;56314;48.088;11.642;2024-03-08T04:19:31;95103.25;;;-1.04;100.00
26978;BME280;56314;48.088;11.642;2024-03-08T04:21:56;95106.53;;;-1.01;100.00
26978;BME280;56314;48.088;11.642;2024-03-08T04:24:22;95105.59;;;-0.98;100.00
26978;BME280;56314;48.088;11.642;2024-03-08T04:26:47;95098.94;;;-1.04;100.00
26978;BME280;56314;48.088;11.642;2024-03-08T04:29:13;95097.19;;;-1.03;100.00
26978;BME280;56314;48.088;11.642;2024-03-08T04:31:40;95097.19;;;-1.03;100.00
26978;BME280;56314;48.088;11.642;2024-03-08T04:34:05;95099.78;;;-1.03;100.00
26978;BME280;56314;48.088;11.642;2024-03-08T04:36:30;95098.94;;;-1.04;100.00
26978;BME280;56314;48.088;11.642;2024-03-08T04:38:56;95096.47;;;-1.07;100.00
26978;BME280;56314;48.088;11.642;2024-03-08T04:41:21;95098.25;;;-1.09;100.00
26978;BME280;56314;48.088;11.642;2024-03-08T04:43:48;95089.91;;;-1.16;100.00
26978;BME280;56314;48.088;11.642;2024-03-08T04:46:14;95102.34;;;-1.03;100.00
26978;BME280;56314;48.088;11.642;2024-03-08T04:48:39;95101.44;;;-1.02;100.00
26978;BME280;56314;48.088;11.642;2024-03-08T04:51:07;95097.25;;;-1.05;100.00
26978;BME280;56314;48.088;11.642;2024-03-08T04:53:32;95100.09;;;-1.13;100.00
26978;BME280;56314;48.088;11.642;2024-03-08T04:55:59;95093.16;;;-1.11;100.00
26978;BME280;56314;48.088;11.642;2024-03-08T04:58:25;95093.09;;;-1.09;100.00
26978;BME280;56314;48.088;11.642;2024-03-08T05:00:50;95099.88;;;-1.06;100.00
26978;BME280;56314;48.088;11.642;2024-03-08T05:03:16;95093.97;;;-1.09;100.00
26978;BME280;56314;48.088;11.642;2024-03-08T05:05:41;95093.03;;;-1.08;100.00
26978;BME280;56314;48.088;11.642;2024-03-08T05:08:06;95090.59;;;-1.11;100.00
26978;BME280;56314;48.088;11.642;2024-03-08T05:10:32;95092.38;;;-1.13;100.00
26978;BME280;56314;48.088;11.642;2024-03-08T05:12:58;95091.53;;;-1.13;100.00
26978;BME280;56314;48.088;11.642;2024-03-08T05:15:23;95088.91;;;-1.12;100.00
26978;BME280;56314;48.088;11.642;2024-03-08T05:17:48;95091.31;;;-1.07;100.00
26978;BME280;56314;48.088;11.642;2024-03-08T05:20:15;95087.88;;;-1.08;100.00
26978;BME280;56314;48.088;11.642;2024-03-08T05:22:42;95085.44;;;-1.11;100.00
26978;BME280;56314;48.088;11.642;2024-03-08T05:25:08;95083.47;;;-1.04;100.00
26978;BME280;56314;48.088;11.642;2024-03-08T05:27:34;95078.25;;;-1.02;100.00
26978;BME280;56314;48.088;11.642;2024-03-08T05:30:02;95081.63;;;-1.00;100.00
26978;BME280;56314;48.088;11.642;2024-03-08T05:32:29;95075.34;;;-0.93;100.00
26978;BME280;56314;48.088;11.642;2024-03-08T05:34:54;95076.38;;;-0.97;100.00
26978;BME280;56314;48.088;11.642;2024-03-08T05:37:20;95070.19;;;-0.93;100.00
26978;BME280;56314;48.088;11.642;2024-03-08T05:39:45;95071.97;;;-0.95;100.00
26978;BME280;56314;48.088;11.642;2024-03-08T05:42:11;95074.97;;;-0.84;100.00
26978;BME280;56314;48.088;11.642;2024-03-08T05:44:36;95069.06;;;-0.86;100.00
26978;BME280;56314;48.088;11.642;2024-03-08T05:47:01;95072.19;;;-0.78;100.00
26978;BME280;56314;48.088;11.642;2024-03-08T05:49:27;95066.16;;;-0.78;100.00
26978;BME280;56314;48.088;11.642;2024-03-08T05:51:52;95074.47;;;-0.70;100.00
26978;BME280;56314;48.088;11.642;2024-03-08T05:54:19;95068.59;;;-0.73;100.00
26978;BME280;56314;48.088;11.642;2024-03-08T05:56:47;95069.94;;;-0.63;100.00
26978;BME280;56314;48.088;11.642;2024-03-08T05:59:13;95063.13;;;-0.66;100.00
26978;BME280;56314;48.088;11.642;2024-03-08T06:01:38;95068.75;;;-0.54;100.00
26978;BME280;56314;48.088;11.642;2024-03-08T06:04:06;95067.81;;;-0.53;99.86
26978;BME280;56314;48.088;11.642;2024-03-08T06:06:32;95058.28;;;-0.51;99.76
26978;BME280;56314;48.088;11.642;2024-03-08T06:08:58;95054.75;;;-0.49;99.57
26978;BME280;56314;48.088;11.642;2024-03-08T06:11:24;95063.94;;;-0.41;98.99
26978;BME280;56314;48.088;11.642;2024-03-08T06:13:52;95060.47;;;-0.40;97.91
26978;BME280;56314;48.088;11.642;2024-03-08T06:16:22;95061.84;;;-0.32;98.08
26978;BME280;56314;48.088;11.642;2024-03-08T06:18:48;95060.38;;;-0.39;98.10
26978;BME280;56314;48.088;11.642;2024-03-08T06:21:13;95055.00;;;-0.33;98.00
26978;BME280;56314;48.088;11.642;2024-03-08T06:23:39;95059.25;;;-0.32;98.11
26978;BME280;56314;48.088;11.642;2024-03-08T06:26:05;95054.09;;;-0.32;97.10
26978;BME280;56314;48.088;11.642;2024-03-08T06:28:30;95059.06;;;-0.27;96.34
26978;BME280;56314;48.088;11.642;2024-03-08T06:30:58;95064.16;;;-0.25;96.53
26978;BME280;56314;48.088;11.642;2024-03-08T06:33:23;95071.13;;;-0.27;96.55
26978;BME280;56314;48.088;11.642;2024-03-08T06:35:48;95074.66;;;-0.30;97.35
26978;BME280;56314;48.088;11.642;2024-03-08T06:38:14;95066.22;;;-0.34;96.63
26978;BME280;56314;48.088;11.642;2024-03-08T06:40:40;95074.66;;;-0.30;96.72
26978;BME280;56314;48.088;11.642;2024-03-08T06:43:05;95064.41;;;-0.32;96.66
26978;BME280;56314;48.088;11.642;2024-03-08T06:45:31;95063.63;;;-0.34;97.37
26978;BME280;56314;48.088;11.642;2024-03-08T06:47:57;95068.72;;;-0.32;96.51
26978;BME280;56314;48.088;11.642;2024-03-08T06:50:22;95066.03;;;-0.29;96.77
26978;BME280;56314;48.088;11.642;2024-03-08T06:52:47;95069.09;;;-0.19;97.08
26978;BME280;56314;48.088;11.642;2024-03-08T06:55:19;95073.63;;;-0.04;95.90
26978;BME280;56314;48.088;11.642;2024-03-08T06:57:44;95073.41;;;0.01;95.80
26978;BME280;56314;48.088;11.642;2024-03-08T07:00:10;95077.56;;;0.05;94.30
26978;BME280;56314;48.088;11.642;2024-03-08T07:02:37;95069.50;;;0.13;93.70
26978;BME280;56314;48.088;11.642;2024-03-08T07:05:05;95068.41;;;0.19;93.23
26978;BME280;56314;48.088;11.642;2024-03-08T07:07:30;95058.16;;;0.17;93.25
26978;BME280;56314;48.088;11.642;2024-03-08T07:09:57;95060.28;;;0.28;92.46
26978;BME280;56314;48.088;11.642;2024-03-08T07:12:22;95060.28;;;0.28;92.64
26978;BME280;56314;48.088;11.642;2024-03-08T07:14:48;95058.41;;;0.32;91.51
26978;BME280;56314;48.088;11.642;2024-03-08T07:17:14;95074.28;;;0.22;91.72
26978;BME280;56314;48.088;11.642;2024-03-08T07:19:39;95063.97;;;0.22;91.98
26978;BME280;56314;48.088;11.642;2024-03-08T07:22:05;95058.75;;;0.24;91.50
26978;BME280;56314;48.088;11.642;2024-03-08T07:24:36;95053.03;;;0.36;92.00
26978;BME280;56314;48.088;11.642;2024-03-08T07:27:02;95067.31;;;0.45;90.93
26978;BME280;56314;48.088;11.642;2024-03-08T07:29:27;95062.84;;;0.49;90.89
26978;BME280;56314;48.088;11.642;2024-03-08T07:31:53;95060.69;;;0.60;90.10
26978;BME280;56314;48.088;11.642;2024-03-08T07:34:36;95054.94;;;0.72;90.10
26978;BME280;56314;48.088;11.642;2024-03-08T07:37:01;95047.63;;;0.82;89.63
26978;BME280;56314;48.088;11.642;2024-03-08T07:39:27;95048.28;;;0.87;87.82
26978;BME280;56314;48.088;11.642;2024-03-08T07:41:52;95048.50;;;1.02;87.89
26978;BME280;56314;48.088;11.642;2024-03-08T07:44:18;95048.41;;;1.42;87.20
26978;BME280;56314;48.088;11.642;2024-03-08T07:46:44;95047.03;;;1.71;87.84
26978;BME280;56314;48.088;11.642;2024-03-08T07:49:09;95041.19;;;2.20;86.16
26978;BME280;56314;48.088;11.642;2024-03-08T07:51:36;95032.53;;;2.21;80.44
26978;BME280;56314;48.088;11.642;2024-03-08T07:54:02;95031.47;;;2.59;80.64
26978;BME280;56314;48.088;11.642;2024-03-08T07:56:29;95031.34;;;2.62;79.43
26978;BME280;56314;48.088;11.642;2024-03-08T07:58:54;95017.56;;;2.44;80.35
26978;BME280;56314;48.088;11.642;2024-03-08T08:01:20;95017.44;;;2.97;77.97
26978;BME280;56314;48.088;11.642;2024-03-08T08:03:45;95010.03;;;3.38;74.86
26978;BME280;56314;48.088;11.642;2024-03-08T08:06:11;95009.63;;;3.30;74.96
26978;BME280;56314;48.088;11.642;2024-03-08T08:08:43;95015.34;;;3.67;73.97
26978;BME280;56314;48.088;11.642;2024-03-08T08:11:09;95018.19;;;3.79;72.72
26978;BME280;56314;48.088;11.642;2024-03-08T08:13:36;95012.75;;;3.51;73.75
26978;BME280;56314;48.088;11.642;2024-03-08T08:16:05;95010.03;;;3.38;73.60
26978;BME280;56314;48.088;11.642;2024-03-08T08:18:33;95019.22;;;3.28;74.94
26978;BME280;56314;48.088;11.642;2024-03-08T08:21:00;95018.63;;;3.23;75.60
26978;BME280;56314;48.088;11.642;2024-03-08T08:23:25;95017.31;;;3.32;75.87
26978;BME280;56314;48.088;11.642;2024-03-08T08:25:51;95015.44;;;3.02;74.90
26978;BME280;56314;48.088;11.642;2024-03-08T08:28:17;95016.00;;;2.91;75.55
26978;BME280;56314;48.088;11.642;2024-03-08T08:30:43;95008.16;;;3.08;75.54
26978;BME280;56314;48.088;11.642;2024-03-08T08:33:09;95003.31;;;3.18;75.44
26978;BME280;56314;48.088;11.642;2024-03-08T08:35:38;95001.97;;;3.43;74.40
26978;BME280;56314;48.088;11.642;2024-03-08T08:38:04;94990.41;;;4.40;72.27
26978;BME280;56314;48.088;11.642;2024-03-08T08:40:30;94986.31;;;4.94;68.56
26978;BME280;56314;48.088;11.642;2024-03-08T08:42:58;94973.81;;;6.10;64.78
26978;BME280;56314;48.088;11.642;2024-03-08T08:45:24;94964.13;;;6.12;61.79
26978;BME280;56314;48.088;11.642;2024-03-08T08:47:49;94971.63;;;6.04;62.25
26978;BME280;56314;48.088;11.642;2024-03-08T08:50:15;94967.53;;;6.00;61.73
26978;BME280;56314;48.088;11.642;2024-03-08T08:52:41;94969.25;;;6.27;61.17
26978;BME280;56314;48.088;11.642;2024-03-08T08:55:10;94952.56;;;7.55;59.47
26978;BME280;56314;48.088;11.642;2024-03-08T08:57:42;94945.56;;;8.27;55.61
26978;BME280;56314;48.088;11.642;2024-03-08T09:00:08;94945.53;;;9.31;53.11
26978;BME280;56314;48.088;11.642;2024-03-08T09:02:33;94936.25;;;10.04;50.71
26978;BME280;56314;48.088;11.642;2024-03-08T09:04:59;94935.31;;;10.47;49.16
26978;BME280;56314;48.088;11.642;2024-03-08T09:07:26;94934.72;;;10.96;47.55
26978;BME280;56314;48.088;11.642;2024-03-08T09:09:53;94933.94;;;11.05;45.82
26978;BME280;56314;48.088;11.642;2024-03-08T09:12:22;94927.06;;;12.04;45.10
26978;BME280;56314;48.088;11.642;2024-03-08T09:14:47;94924.41;;;12.90;43.01
26978;BME280;56314;48.088;11.642;2024-03-08T09:17:13;94909.84;;;13.52;42.12
26978;BME280;56314;48.088;11.642;2024-03-08T09:19:42;94909.97;;;13.22;40.20
26978;BME280;56314;48.088;11.642;2024-03-08T09:22:08;94910.06;;;13.41;40.17
26978;BME280;56314;48.088;11.642;2024-03-08T09:24:33;94900.16;;;13.89;40.34
26978;BME280;56314;48.088;11.642;2024-03-08T09:26:59;94894.75;;;14.16;39.49
26978;BME280;56314;48.088;11.642;2024-03-08T09:29:24;94897.03;;;14.29;38.39
26978;BME280;56314;48.088;11.642;2024-03-08T09:31:49;94880.59;;;14.44;38.44
26978;BME280;56314;48.088;11.642;2024-03-08T09:34:15;94878.69;;;14.72;37.29
26978;BME280;56314;48.088;11.642;2024-03-08T09:36:40;94890.22;;;14.27;38.70
26978;BME280;56314;48.088;11.642;2024-03-08T09:39:06;94887.38;;;14.99;37.83
26978;BME280;56314;48.088;11.642;2024-03-08T09:41:33;94881.09;;;15.43;37.38
26978;BME280;56314;48.088;11.642;2024-03-08T09:43:59;94884.41;;;15.45;36.50
26978;BME280;56314;48.088;11.642;2024-03-08T09:46:25;94883.47;;;15.63;36.38
26978;BME280;56314;48.088;11.642;2024-03-08T09:48:52;94875.63;;;14.93;36.81
26978;BME280;56314;48.088;11.642;2024-03-08T09:51:21;94869.31;;;15.21;36.76
26978;BME280;56314;48.088;11.642;2024-03-08T09:53:51;94869.84;;;15.41;36.18
26978;BME280;56314;48.088;11.642;2024-03-08T09:56:19;94877.47;;;15.52;36.51
26978;BME280;56314;48.088;11.642;2024-03-08T09:58:44;94877.38;;;15.19;37.37
26978;BME280;56314;48.088;11.642;2024-03-08T10:01:39;94876.84;;;15.59;35.93
26978;BME280;56314;48.088;11.642;2024-03-08T10:04:04;94867.28;;;15.74;36.31
26978;BME280;56314;48.088;11.642;2024-03-08T10:06:30;94866.88;;;15.36;36.44
26978;BME280;56314;48.088;11.642;2024-03-08T10:08:56;94871.38;;;15.60;37.30
26978;BME280;56314;48.088;11.642;2024-03-08T10:11:22;94866.72;;;15.46;36.40
26978;BME280;56314;48.088;11.642;2024-03-08T10:13:48;94862.94;;;15.65;36.12
26978;BME280;56314;48.088;11.642;2024-03-08T10:16:15;94857.34;;;15.76;36.73
26978;BME280;56314;48.088;11.642;2024-03-08T10:18:42;94860.38;;;15.90;35.33
26978;BME280;56314;48.088;11.642;2024-03-08T10:21:08;94857.31;;;15.51;36.64
26978;BME280;56314;48.088;11.642;2024-03-08T10:23:35;94855.13;;;15.38;36.51
26978;BME280;56314;48.088;11.642;2024-03-08T10:26:31;94850.63;;;15.31;36.01
26978;BME280;56314;48.088;11.642;2024-03-08T10:28:56;94845.81;;;15.85;36.20
26978;BME280;56314;48.088;11.642;2024-03-08T10:31:23;94844.16;;;15.17;36.73
26978;BME280;56314;48.088;11.642;2024-03-08T10:33:48;94839.56;;;15.35;36.39
26978;BME280;56314;48.088;11.642;2024-03-08T10:36:15;94838.63;;;15.53;36.25
26978;BME280;56314;48.088;11.642;2024-03-08T10:38:41;94845.22;;;15.41;37.17
26978;BME280;56314;48.088;11.642;2024-03-08T10:41:12;94844.34;;;15.23;36.52
26978;BME280;56314;48.088;11.642;2024-03-08T10:48:55;94841.94;;;14.61;38.77
26978;BME280;56314;48.088;11.642;2024-03-08T10:51:24;94833.09;;;13.99;38.74
26978;BME280;56314;48.088;11.642;2024-03-08T10:53:52;94852.72;;;13.79;39.18
26978;BME280;56314;48.088;11.642;2024-03-08T10:56:17;94832.44;;;13.79;39.41
26978;BME280;56314;48.088;11.642;2024-03-08T10:58:43;94837.03;;;14.48;38.94
26978;BME280;56314;48.088;11.642;2024-03-08T11:01:09;94829.34;;;14.63;39.42
26978;BME280;56314;48.088;11.642;2024-03-08T11:03:47;94829.69;;;14.95;38.83
26978;BME280;56314;48.088;11.642;2024-03-08T11:06:29;94824.47;;;14.68;37.20
26978;BME280;56314;48.088;11.642;2024-03-08T11:08:55;94819.91;;;14.26;38.82
26978;BME280;56314;48.088;11.642;2024-03-08T11:11:28;94821.50;;;14.19;38.34
26978;BME280;56314;48.088;11.642;2024-03-08T11:13:58;94809.59;;;14.14;39.04
26978;BME280;56314;48.088;11.642;2024-03-08T11:18:58;94802.53;;;13.70;39.26
26978;BME280;56314;48.088;11.642;2024-03-08T11:21:32;94804.84;;;13.74;39.79
26978;BME280;56314;48.088;11.642;2024-03-08T11:24:12;94793.88;;;14.05;39.79
26978;BME280;56314;48.088;11.642;2024-03-08T11:26:39;94793.25;;;14.11;39.27
26978;BME280;56314;48.088;11.642;2024-03-08T11:32:15;94779.16;;;14.02;38.97
26978;BME280;56314;48.088;11.642;2024-03-08T11:34:48;94784.28;;;14.04;38.91
26978;BME280;56314;48.088;11.642;2024-03-08T11:37:18;94782.13;;;13.99;38.67
26978;BME280;56314;48.088;11.642;2024-03-08T11:42:12;94767.88;;;13.92;39.88
26978;BME280;56314;48.088;11.642;2024-03-08T11:44:37;94779.31;;;13.56;38.56
26978;BME280;56314;48.088;11.642;2024-03-08T11:47:08;94780.13;;;13.75;39.62
26978;BME280;56314;48.088;11.642;2024-03-08T11:49:35;94783.25;;;13.06;40.87
26978;BME280;56314;48.088;11.642;2024-03-08T11:52:00;94775.97;;;13.36;40.12
26978;BME280;56314;48.088;11.642;2024-03-08T11:54:26;94784.22;;;12.59;40.27
26978;BME280;56314;48.088;11.642;2024-03-08T11:56:52;94767.38;;;12.98;40.89
26978;BME280;56314;48.088;11.642;2024-03-08T11:59:17;94780.69;;;12.96;40.37
26978;BME280;56314;48.088;11.642;2024-03-08T12:01:43;94769.59;;;12.46;41.97
26978;BME280;56314;48.088;11.642;2024-03-08T12:04:21;94770.41;;;12.09;41.78
26978;BME280;56314;48.088;11.642;2024-03-08T12:06:49;94775.72;;;11.80;43.77
26978;BME280;56314;48.088;11.642;2024-03-08T12:09:16;94763.28;;;11.72;43.80
26978;BME280;56314;48.088;11.642;2024-03-08T12:11:41;94769.53;;;11.42;44.35
26978;BME280;56314;48.088;11.642;2024-03-08T12:14:08;94764.66;;;10.98;45.62
26978;BME280;56314;48.088;11.642;2024-03-08T12:16:33;94764.22;;;10.73;45.94
26978;BME280;56314;48.088;11.642;2024-03-08T12:18:59;94761.34;;;10.14;46.23
26978;BME280;56314;48.088;11.642;2024-03-08T12:21:26;94757.72;;;9.74;48.16
26978;BME280;56314;48.088;11.642;2024-03-08T12:24:08;94759.19;;;9.46;47.56
26978;BME280;56314;48.088;11.642;2024-03-08T12:26:35;94754.44;;;9.39;47.99
26978;BME280;56314;48.088;11.642;2024-03-08T12:29:21;94758.47;;;9.44;48.78
26978;BME280;56314;48.088;11.642;2024-03-08T12:31:52;94748.25;;;9.19;49.67
26978;BME280;56314;48.088;11.642;2024-03-08T12:34:21;94749.34;;;9.59;49.36
26978;BME280;56314;48.088;11.642;2024-03-08T12:36:48;94728.75;;;10.07;48.08
26978;BME280;56314;48.088;11.642;2024-03-08T12:39:20;94734.44;;;10.43;48.43
26978;BME280;56314;48.088;11.642;2024-03-08T12:41:53;94722.78;;;10.96;46.53
26978;BME280;56314;48.088;11.642;2024-03-08T12:44:19;94719.31;;;11.45;45.24
26978;BME280;56314;48.088;11.642;2024-03-08T12:46:47;94715.50;;;11.77;44.15
26978;BME280;56314;48.088;11.642;2024-03-08T12:49:13;94713.81;;;12.33;43.25
26978;BME280;56314;48.088;11.642;2024-03-08T12:51:43;94699.44;;;12.55;41.98
26978;BME280;56314;48.088;11.642;2024-03-08T12:54:08;94694.81;;;12.57;41.76
26978;BME280;56314;48.088;11.642;2024-03-08T12:56:35;94693.38;;;12.63;41.85
26978;BME280;56314;48.088;11.642;2024-03-08T12:59:03;94697.69;;;12.64;41.72
26978;BME280;56314;48.088;11.642;2024-03-08T13:01:28;94684.88;;;12.51;41.83
26978;BME280;56314;48.088;11.642;2024-03-08T13:03:55;94686.56;;;12.70;41.48